createdAt,value
2017-06-17T00:00:43.701Z,0
2017-06-17T00:01:56.098Z,0
2017-06-17T00:03:08.499Z,0
2017-06-17T00:04:21.392Z,0
2017-06-17T00:05:34.486Z,0
2017-06-17T00:06:47.375Z,0
2017-06-17T00:08:00.277Z,0
2017-06-17T00:09:12.682Z,0
2017-06-17T00:10:25.578Z,0
2017-06-17T00:11:38.474Z,0
2017-06-17T00:12:51.371Z,0
2017-06-17T00:14:04.266Z,0
2017-06-17T00:15:16.669Z,0
2017-06-17T00:16:29.765Z,0
2017-06-17T00:17:42.169Z,0
2017-06-17T00:18:55.061Z,0
2017-06-17T00:20:07.955Z,0
2017-06-17T00:21:20.850Z,0
2017-06-17T00:22:32.770Z,0
2017-06-17T00:23:45.665Z,0
2017-06-17T00:24:58.553Z,0
2017-06-17T00:26:11.451Z,0
2017-06-17T00:27:24.349Z,0
2017-06-17T00:28:37.271Z,0
2017-06-17T00:29:50.167Z,0
2017-06-17T00:31:02.573Z,0
2017-06-17T00:32:15.464Z,0
2017-06-17T00:33:28.363Z,0
2017-06-17T00:34:41.256Z,0
2017-06-17T00:35:54.149Z,0
2017-06-17T00:37:07.039Z,0
2017-06-17T00:38:19.638Z,0
2017-06-17T00:39:32.530Z,0
2017-06-17T00:40:45.430Z,0
2017-06-17T00:41:58.323Z,0
2017-06-17T00:43:10.731Z,0
2017-06-17T00:44:23.134Z,0
2017-06-17T00:45:36.028Z,0
2017-06-17T00:46:48.938Z,0
2017-06-17T00:48:01.339Z,0
2017-06-17T00:49:14.432Z,0
2017-06-17T00:50:27.330Z,0
2017-06-17T00:51:40.219Z,0
2017-06-17T00:52:53.109Z,0
2017-06-17T00:54:06.005Z,0
2017-06-17T00:55:18.907Z,0
2017-06-17T00:56:31.319Z,0
2017-06-17T00:57:43.727Z,0
2017-06-17T00:58:56.620Z,0
2017-06-17T01:00:09.021Z,0
2017-06-17T01:01:21.910Z,0
2017-06-17T01:02:34.832Z,0
2017-06-17T01:03:47.754Z,0
2017-06-17T01:05:00.656Z,0
2017-06-17T01:06:13.287Z,0
2017-06-17T01:07:26.182Z,0
2017-06-17T01:08:39.073Z,0
2017-06-17T01:09:51.969Z,0
2017-06-17T01:11:05.071Z,0
2017-06-17T01:12:17.478Z,0
2017-06-17T01:13:30.380Z,0
2017-06-17T01:14:43.274Z,0
2017-06-17T01:15:55.680Z,0
2017-06-17T01:17:08.578Z,0
2017-06-17T01:18:21.474Z,0
2017-06-17T01:19:33.388Z,0
2017-06-17T01:20:46.286Z,0
2017-06-17T01:21:59.182Z,0
2017-06-17T01:23:12.083Z,0
2017-06-17T01:24:24.980Z,0
2017-06-17T01:25:37.386Z,0
2017-06-17T01:26:50.279Z,0
2017-06-17T01:28:03.168Z,0
2017-06-17T01:29:15.577Z,0
2017-06-17T01:30:27.983Z,0
2017-06-17T01:31:40.879Z,0
2017-06-17T01:32:53.279Z,0
2017-06-17T01:34:06.205Z,0
2017-06-17T01:35:18.603Z,0
2017-06-17T01:36:30.516Z,0
2017-06-17T01:37:43.415Z,0
2017-06-17T01:38:56.312Z,0
2017-06-17T01:40:09.209Z,0
2017-06-17T01:41:22.106Z,0
2017-06-17T01:42:35.003Z,0
2017-06-17T01:43:47.926Z,0
2017-06-17T01:45:00.851Z,0
2017-06-17T01:46:13.761Z,0
2017-06-17T01:47:26.706Z,0
2017-06-17T01:48:39.622Z,0
2017-06-17T01:49:52.590Z,0
2017-06-17T01:51:05.071Z,0
2017-06-17T01:52:17.644Z,0
2017-06-17T01:53:29.575Z,0
2017-06-17T01:54:42.467Z,0
2017-06-17T01:55:55.382Z,0
2017-06-17T01:57:07.916Z,0
2017-06-17T01:58:20.079Z,0
2017-06-17T01:59:32.578Z,0
2017-06-17T02:00:45.503Z,0
2017-06-17T02:01:58.768Z,0
2017-06-17T02:03:12.321Z,0
2017-06-17T02:04:25.638Z,0
2017-06-17T02:05:38.857Z,0
2017-06-17T02:06:51.840Z,0
2017-06-17T02:08:04.879Z,0
2017-06-17T02:09:17.202Z,0
2017-06-17T02:10:29.985Z,0
2017-06-17T02:11:42.845Z,0
2017-06-17T02:12:55.337Z,0
2017-06-17T02:14:07.878Z,0
2017-06-17T02:15:20.941Z,0
2017-06-17T02:16:33.517Z,0
2017-06-17T02:17:46.008Z,0
2017-06-17T02:18:58.911Z,0
2017-06-17T02:20:11.428Z,0
2017-06-17T02:21:24.401Z,0
2017-06-17T02:22:36.868Z,0
2017-06-17T02:23:49.338Z,0
2017-06-17T02:25:02.369Z,0
2017-06-17T02:26:15.359Z,0
2017-06-17T02:27:27.684Z,0
2017-06-17T02:28:40.459Z,0
2017-06-17T02:29:52.754Z,0
2017-06-17T02:31:05.053Z,0
2017-06-17T02:32:16.982Z,0
2017-06-17T02:33:30.108Z,0
2017-06-17T02:34:43.028Z,0
2017-06-17T02:35:54.961Z,0
2017-06-17T02:37:07.384Z,0
2017-06-17T02:38:20.006Z,0
2017-06-17T02:39:32.923Z,0
2017-06-17T02:40:45.849Z,0
2017-06-17T02:41:58.751Z,0
2017-06-17T02:43:11.649Z,0
2017-06-17T02:44:24.741Z,0
2017-06-17T02:45:37.637Z,0
2017-06-17T02:46:50.528Z,0
2017-06-17T02:48:03.418Z,0
2017-06-17T02:49:15.821Z,0
2017-06-17T02:50:28.713Z,0
2017-06-17T02:51:41.607Z,0
2017-06-17T02:52:54.501Z,0
2017-06-17T02:54:06.903Z,0
2017-06-17T02:55:19.303Z,0
2017-06-17T02:56:31.713Z,0
2017-06-17T02:57:44.605Z,0
2017-06-17T02:58:57.042Z,0
2017-06-17T03:00:09.159Z,0
2017-06-17T03:01:22.058Z,0
2017-06-17T03:02:34.950Z,0
2017-06-17T03:03:47.842Z,0
2017-06-17T03:05:00.729Z,0
2017-06-17T03:06:13.334Z,0
2017-06-17T03:07:25.750Z,0
2017-06-17T03:08:38.643Z,0
2017-06-17T03:09:51.537Z,0
2017-06-17T03:11:04.637Z,0
2017-06-17T03:12:17.042Z,0
2017-06-17T03:13:29.446Z,0
2017-06-17T03:14:41.846Z,0
2017-06-17T03:15:54.738Z,0
2017-06-17T03:17:07.628Z,0
2017-06-17T03:18:20.032Z,0
2017-06-17T03:19:32.996Z,0
2017-06-17T03:20:45.973Z,0
2017-06-17T03:21:58.950Z,0
2017-06-17T03:23:11.929Z,0
2017-06-17T03:24:24.905Z,0
2017-06-17T03:25:36.895Z,0
2017-06-17T03:26:49.872Z,0
2017-06-17T03:28:01.860Z,0
2017-06-17T03:29:14.836Z,0
2017-06-17T03:30:27.324Z,0
2017-06-17T03:31:40.304Z,0
2017-06-17T03:32:53.479Z,0
2017-06-17T03:34:06.463Z,0
2017-06-17T03:35:18.948Z,0
2017-06-17T03:36:31.932Z,0
2017-06-17T03:37:44.910Z,0
2017-06-17T03:38:58.086Z,0
2017-06-17T03:40:10.575Z,0
2017-06-17T03:41:23.056Z,0
2017-06-17T03:42:35.536Z,0
2017-06-17T03:43:48.215Z,0
2017-06-17T03:45:00.694Z,0
2017-06-17T03:46:13.173Z,0
2017-06-17T03:47:25.657Z,0
2017-06-17T03:48:38.634Z,0
2017-06-17T03:49:51.810Z,0
2017-06-17T03:51:04.788Z,0
2017-06-17T03:52:17.761Z,0
2017-06-17T03:53:30.786Z,0
2017-06-17T03:54:44.024Z,0
2017-06-17T03:55:57.061Z,0
2017-06-17T03:57:09.099Z,0
2017-06-17T03:58:22.130Z,0
2017-06-17T03:59:35.162Z,0
2017-06-17T04:00:47.898Z,0
2017-06-17T04:02:00.931Z,0
2017-06-17T04:03:13.963Z,0
2017-06-17T04:04:26.995Z,0
2017-06-17T04:05:40.231Z,0
2017-06-17T04:06:53.263Z,0
2017-06-17T04:08:06.326Z,0
2017-06-17T04:09:18.365Z,0
2017-06-17T04:10:31.404Z,0
2017-06-17T04:11:44.325Z,0
2017-06-17T04:12:57.261Z,0
2017-06-17T04:14:09.685Z,0
2017-06-17T04:15:22.105Z,0
2017-06-17T04:16:35.223Z,0
2017-06-17T04:17:48.025Z,0
2017-06-17T04:18:59.353Z,0
2017-06-17T04:20:11.164Z,0
2017-06-17T04:21:23.462Z,0
2017-06-17T04:22:36.445Z,0
2017-06-17T04:23:49.218Z,0
2017-06-17T04:25:01.508Z,0
2017-06-17T04:26:13.318Z,0
2017-06-17T04:27:26.295Z,0
2017-06-17T04:28:38.586Z,0
2017-06-17T04:29:51.365Z,0
2017-06-17T04:31:04.141Z,0
2017-06-17T04:32:16.919Z,0
2017-06-17T04:33:29.908Z,0
2017-06-17T04:34:42.684Z,0
2017-06-17T04:35:54.979Z,0
2017-06-17T04:37:07.273Z,0
2017-06-17T04:38:20.046Z,0
2017-06-17T04:39:32.356Z,0
2017-06-17T04:40:45.136Z,0
2017-06-17T04:41:57.912Z,0
2017-06-17T04:43:10.687Z,0
2017-06-17T04:44:23.663Z,0
2017-06-17T04:45:36.446Z,0
2017-06-17T04:46:49.228Z,0
2017-06-17T04:48:02.007Z,0
2017-06-17T04:49:14.503Z,0
2017-06-17T04:50:27.282Z,0
2017-06-17T04:51:39.094Z,0
2017-06-17T04:52:51.899Z,0
2017-06-17T04:54:04.672Z,0
2017-06-17T04:55:17.455Z,0
2017-06-17T04:56:30.347Z,0
2017-06-17T04:57:42.757Z,0
2017-06-17T04:58:55.163Z,0
2017-06-17T05:00:07.772Z,0
2017-06-17T05:01:20.671Z,0
2017-06-17T05:02:33.568Z,0
2017-06-17T05:03:46.460Z,0
2017-06-17T05:04:59.356Z,0
2017-06-17T05:06:11.963Z,0
2017-06-17T05:07:24.860Z,0
2017-06-17T05:08:36.774Z,0
2017-06-17T05:09:49.672Z,0
2017-06-17T05:11:02.563Z,0
2017-06-17T05:12:14.966Z,0
2017-06-17T05:13:27.373Z,0
2017-06-17T05:14:40.271Z,0
2017-06-17T05:15:53.163Z,0
2017-06-17T05:17:06.064Z,0
2017-06-17T05:18:18.958Z,0
2017-06-17T05:19:31.865Z,0
2017-06-17T05:20:44.772Z,0
2017-06-17T05:21:57.878Z,0
2017-06-17T05:23:10.791Z,0
2017-06-17T05:24:22.741Z,0
2017-06-17T05:25:35.651Z,0
2017-06-17T05:26:48.541Z,0
2017-06-17T05:28:01.464Z,0
2017-06-17T05:29:13.902Z,0
2017-06-17T05:30:26.793Z,0
2017-06-17T05:31:39.720Z,0
2017-06-17T05:32:52.206Z,0
2017-06-17T05:34:05.276Z,0
2017-06-17T05:35:18.425Z,0
2017-06-17T05:36:31.559Z,0
2017-06-17T05:37:44.686Z,0
2017-06-17T05:38:58.048Z,0
2017-06-17T05:40:11.192Z,0
2017-06-17T05:41:24.340Z,0
2017-06-17T05:42:37.027Z,0
2017-06-17T05:43:49.764Z,0
2017-06-17T05:45:02.425Z,0
2017-06-17T05:46:14.893Z,0
2017-06-17T05:47:27.360Z,0
2017-06-17T05:48:40.270Z,0
2017-06-17T05:49:53.190Z,0
2017-06-17T05:51:05.639Z,0
2017-06-17T05:52:18.099Z,0
2017-06-17T05:53:31.023Z,0
2017-06-17T05:54:44.133Z,0
2017-06-17T05:55:56.555Z,0
2017-06-17T05:57:09.470Z,0
2017-06-17T05:58:22.375Z,0
2017-06-17T05:59:35.284Z,0
2017-06-17T06:00:48.398Z,0
2017-06-17T06:02:01.310Z,0
2017-06-17T06:03:14.291Z,0
2017-06-17T06:04:27.305Z,0
2017-06-17T06:05:39.981Z,0
2017-06-17T06:06:52.402Z,0
2017-06-17T06:08:05.317Z,0
2017-06-17T06:09:18.226Z,0
2017-06-17T06:10:31.147Z,0
2017-06-17T06:11:44.061Z,0
2017-06-17T06:12:56.971Z,0
2017-06-17T06:14:09.887Z,0
2017-06-17T06:15:22.332Z,0
2017-06-17T06:16:35.438Z,0
2017-06-17T06:17:48.353Z,0
2017-06-17T06:19:01.260Z,0
2017-06-17T06:20:13.681Z,0
2017-06-17T06:21:26.598Z,0
2017-06-17T06:22:39.710Z,0
2017-06-17T06:23:52.619Z,0
2017-06-17T06:25:05.038Z,0
2017-06-17T06:26:17.819Z,0
2017-06-17T06:27:30.792Z,0
2017-06-17T06:28:43.564Z,0
2017-06-17T06:29:56.336Z,0
2017-06-17T06:31:08.642Z,0
2017-06-17T06:32:21.447Z,0
2017-06-17T06:33:34.228Z,0
2017-06-17T06:34:47.014Z,0
2017-06-17T06:35:59.796Z,0
2017-06-17T06:37:12.084Z,0
2017-06-17T06:38:25.056Z,0
2017-06-17T06:39:37.411Z,0
2017-06-17T06:40:50.269Z,0
2017-06-17T06:42:02.637Z,0
2017-06-17T06:43:15.495Z,0
2017-06-17T06:44:28.551Z,0
2017-06-17T06:45:40.922Z,0
2017-06-17T06:46:53.782Z,0
2017-06-17T06:48:06.147Z,0
2017-06-17T06:49:18.225Z,0
2017-06-17T06:50:31.081Z,0
2017-06-17T06:51:43.932Z,0
2017-06-17T06:52:56.296Z,0
2017-06-17T06:54:08.664Z,0
2017-06-17T06:55:21.726Z,0
2017-06-17T06:56:34.579Z,0
2017-06-17T06:57:46.947Z,0
2017-06-17T06:58:59.312Z,0
2017-06-17T07:00:11.396Z,0
2017-06-17T07:01:23.796Z,0
2017-06-17T07:02:35.675Z,0
2017-06-17T07:03:48.048Z,0
2017-06-17T07:05:00.900Z,0
2017-06-17T07:06:13.474Z,0
2017-06-17T07:07:25.845Z,0
2017-06-17T07:08:38.700Z,0
2017-06-17T07:09:51.555Z,0
2017-06-17T07:11:04.409Z,0
2017-06-17T07:12:17.269Z,0
2017-06-17T07:13:30.123Z,0
2017-06-17T07:14:42.977Z,0
2017-06-17T07:15:55.840Z,0
2017-06-17T07:17:08.698Z,0
2017-06-17T07:18:21.079Z,0
2017-06-17T07:19:33.446Z,0
2017-06-17T07:20:46.358Z,0
2017-06-17T07:21:59.209Z,0
2017-06-17T07:23:12.062Z,0
2017-06-17T07:24:23.955Z,0
2017-06-17T07:25:36.321Z,0
2017-06-17T07:26:49.174Z,0
2017-06-17T07:28:02.225Z,0
2017-06-17T07:29:15.080Z,0
2017-06-17T07:30:27.446Z,0
2017-06-17T07:31:39.331Z,0
2017-06-17T07:32:51.896Z,0
2017-06-17T07:34:04.751Z,0
2017-06-17T07:35:17.605Z,0
2017-06-17T07:36:29.485Z,0
2017-06-17T07:37:42.347Z,0
2017-06-17T07:38:55.203Z,0
2017-06-17T07:40:08.059Z,0
2017-06-17T07:41:20.917Z,0
2017-06-17T07:42:33.285Z,0
2017-06-17T07:43:46.337Z,0
2017-06-17T07:44:58.701Z,0
2017-06-17T07:46:11.554Z,0
2017-06-17T07:47:24.410Z,0
2017-06-17T07:48:37.263Z,0
2017-06-17T07:49:50.322Z,0
2017-06-17T07:51:03.177Z,0
2017-06-17T07:52:15.545Z,0
2017-06-17T07:53:27.917Z,0
2017-06-17T07:54:40.282Z,0
2017-06-17T07:55:52.647Z,0
2017-06-17T07:57:05.507Z,0
2017-06-17T07:58:17.876Z,0
2017-06-17T07:59:30.727Z,0
2017-06-17T08:00:43.296Z,0
2017-06-17T08:01:55.665Z,0
2017-06-17T08:03:08.517Z,0
2017-06-17T08:04:21.373Z,0
2017-06-17T08:05:34.426Z,0
2017-06-17T08:06:47.281Z,0
2017-06-17T08:08:00.135Z,0
2017-06-17T08:09:12.993Z,0
2017-06-17T08:10:25.849Z,0
2017-06-17T08:11:38.704Z,0
2017-06-17T08:12:51.077Z,0
2017-06-17T08:14:03.924Z,0
2017-06-17T08:15:16.292Z,0
2017-06-17T08:16:29.142Z,0
2017-06-17T08:17:41.998Z,0
2017-06-17T08:18:54.366Z,0
2017-06-17T08:20:06.185Z,0
2017-06-17T08:21:18.963Z,0
2017-06-17T08:22:31.943Z,0
2017-06-17T08:23:44.717Z,0
2017-06-17T08:24:57.526Z,0
2017-06-17T08:26:10.296Z,0
2017-06-17T08:27:23.065Z,0
2017-06-17T08:28:35.355Z,0
2017-06-17T08:29:48.131Z,0
2017-06-17T08:31:00.905Z,0
2017-06-17T08:32:13.676Z,0
2017-06-17T08:33:26.650Z,0
2017-06-17T08:34:39.426Z,0
2017-06-17T08:35:52.198Z,0
2017-06-17T08:37:04.972Z,0
2017-06-17T08:38:17.946Z,0
2017-06-17T08:39:30.233Z,0
2017-06-17T08:40:43.069Z,0
2017-06-17T08:41:55.960Z,0
2017-06-17T08:43:08.365Z,0
2017-06-17T08:44:34.818Z,0
2017-06-17T08:45:47.720Z,0
2017-06-17T08:47:00.123Z,0
2017-06-17T08:48:13.017Z,0
2017-06-17T08:49:25.905Z,0
2017-06-17T08:50:38.802Z,0
2017-06-17T08:51:51.700Z,0
2017-06-17T08:53:04.674Z,0
2017-06-17T08:54:17.850Z,0
2017-06-17T08:55:30.820Z,0
2017-06-17T08:56:43.792Z,0
2017-06-17T08:57:56.763Z,0
2017-06-17T08:59:08.751Z,0
2017-06-17T09:00:21.435Z,0
2017-06-17T09:01:33.916Z,0
2017-06-17T09:02:46.893Z,0
2017-06-17T09:03:59.374Z,0
2017-06-17T09:05:11.854Z,0
2017-06-17T09:06:24.830Z,0
2017-06-17T09:07:37.804Z,0
2017-06-17T09:08:50.776Z,0
2017-06-17T09:10:03.765Z,0
2017-06-17T09:11:16.447Z,0
2017-06-17T09:12:28.925Z,0
2017-06-17T09:13:41.897Z,0
2017-06-17T09:14:54.374Z,0
2017-06-17T09:16:06.853Z,0
2017-06-17T09:17:19.333Z,0
2017-06-17T09:18:31.810Z,0
2017-06-17T09:19:44.787Z,0
2017-06-17T09:20:57.764Z,0
2017-06-17T09:22:10.745Z,0
2017-06-17T09:23:23.718Z,0
2017-06-17T09:24:36.690Z,0
2017-06-17T09:25:49.180Z,0
2017-06-17T09:27:02.103Z,0
2017-06-17T09:28:15.010Z,0
2017-06-17T09:29:27.426Z,0
2017-06-17T09:30:39.354Z,0
2017-06-17T09:31:52.263Z,0
2017-06-17T09:33:04.885Z,0
2017-06-17T09:34:17.309Z,0
2017-06-17T09:35:30.221Z,0
2017-06-17T09:36:43.133Z,0
2017-06-17T09:37:56.043Z,0
2017-06-17T09:39:08.464Z,0
2017-06-17T09:40:21.373Z,0
2017-06-17T09:41:34.287Z,0
2017-06-17T09:42:47.207Z,0
2017-06-17T09:43:59.628Z,0
2017-06-17T09:45:12.044Z,0
2017-06-17T09:46:24.969Z,0
2017-06-17T09:47:37.389Z,0
2017-06-17T09:48:50.305Z,0
2017-06-17T09:50:03.220Z,0
2017-06-17T09:51:14.664Z,0
2017-06-17T09:52:27.082Z,0
2017-06-17T09:53:39.995Z,0
2017-06-17T09:54:53.104Z,0
2017-06-17T09:56:05.031Z,0
2017-06-17T09:57:17.946Z,0
2017-06-17T09:58:30.853Z,0
2017-06-17T09:59:43.765Z,0
2017-06-17T10:00:56.678Z,0
2017-06-17T10:02:09.100Z,0
2017-06-17T10:03:22.021Z,0
2017-06-17T10:04:34.935Z,0
2017-06-17T10:05:48.045Z,0
2017-06-17T10:06:59.971Z,0
2017-06-17T10:08:11.897Z,0
2017-06-17T10:09:24.316Z,0
2017-06-17T10:10:37.226Z,0
2017-06-17T10:11:50.137Z,0
2017-06-17T10:13:03.052Z,0
2017-06-17T10:14:15.976Z,0
2017-06-17T10:15:28.889Z,0
2017-06-17T10:16:41.509Z,0
2017-06-17T10:17:54.420Z,5
2017-06-17T10:19:07.329Z,5
2017-06-17T10:20:19.750Z,5
2017-06-17T10:21:32.369Z,5
2017-06-17T10:22:45.288Z,5
2017-06-17T10:23:57.706Z,5
2017-06-17T10:25:10.125Z,5
2017-06-17T10:26:23.037Z,5
2017-06-17T10:27:49.992Z,5
2017-06-17T10:29:02.898Z,5
2017-06-17T10:30:14.828Z,5
2017-06-17T10:31:27.246Z,5
2017-06-17T10:32:39.379Z,5
2017-06-17T10:33:51.800Z,5
2017-06-17T10:35:04.710Z,5
2017-06-17T10:36:17.130Z,5
2017-06-17T10:37:29.751Z,5
2017-06-17T10:38:41.698Z,5
2017-06-17T10:39:54.116Z,5
2017-06-17T10:41:07.025Z,5
2017-06-17T10:42:19.448Z,5
2017-06-17T10:43:32.365Z,10
2017-06-17T10:44:45.277Z,10
2017-06-17T10:45:58.187Z,10
2017-06-17T10:47:11.095Z,10
2017-06-17T10:48:24.011Z,10
2017-06-17T10:49:36.920Z,10
2017-06-17T10:50:48.863Z,10
2017-06-17T10:52:01.772Z,10
2017-06-17T10:53:14.683Z,10
2017-06-17T10:54:27.101Z,10
2017-06-17T10:55:39.525Z,10
2017-06-17T10:56:51.947Z,10
2017-06-17T10:58:04.858Z,10
2017-06-17T10:59:17.969Z,10
2017-06-17T11:00:30.879Z,10
2017-06-17T11:01:43.302Z,10
2017-06-17T11:02:55.726Z,10
2017-06-17T11:04:08.146Z,10
2017-06-17T11:05:20.074Z,10
2017-06-17T11:06:32.985Z,15
2017-06-17T11:07:45.402Z,15
2017-06-17T11:08:58.311Z,15
2017-06-17T11:10:10.934Z,15
2017-06-17T11:11:23.847Z,15
2017-06-17T11:12:36.763Z,15
2017-06-17T11:13:49.680Z,15
2017-06-17T11:15:02.592Z,15
2017-06-17T11:16:15.220Z,15
2017-06-17T11:17:28.134Z,15
2017-06-17T11:18:41.052Z,15
2017-06-17T11:19:53.960Z,15
2017-06-17T11:21:06.581Z,15
2017-06-17T11:22:18.526Z,15
2017-06-17T11:24:13.871Z,15
2017-06-17T11:25:26.679Z,15
2017-06-17T11:26:38.989Z,15
2017-06-17T11:27:51.848Z,15
2017-06-17T11:29:04.718Z,15
2017-06-17T11:30:17.106Z,15
2017-06-17T11:31:29.989Z,20
2017-06-17T11:32:42.889Z,20
2017-06-17T11:33:56.612Z,20
2017-06-17T11:35:10.361Z,20
2017-06-17T11:36:24.329Z,20
2017-06-17T11:37:38.473Z,20
2017-06-17T11:38:51.779Z,20
2017-06-17T11:40:06.506Z,20
2017-06-17T11:41:20.632Z,20
2017-06-17T11:42:34.492Z,20
2017-06-17T11:43:49.018Z,20
2017-06-17T11:45:01.966Z,20
2017-06-17T11:46:15.479Z,20
2017-06-17T11:47:29.123Z,20
2017-06-17T11:48:42.440Z,20
2017-06-17T11:49:54.722Z,20
2017-06-17T11:51:07.839Z,20
2017-06-17T11:52:21.927Z,20
2017-06-17T11:53:36.415Z,20
2017-06-17T11:54:50.871Z,20
2017-06-17T11:56:04.253Z,25
2017-06-17T11:57:18.332Z,25
2017-06-17T11:58:32.413Z,25
2017-06-17T11:59:46.086Z,25
2017-06-17T12:00:59.034Z,25
2017-06-17T12:02:12.514Z,20
2017-06-17T12:03:26.004Z,20
2017-06-17T12:04:39.377Z,20
2017-06-17T12:05:52.321Z,20
2017-06-17T12:07:05.213Z,20
2017-06-17T12:08:17.113Z,25
2017-06-17T12:10:56.439Z,20
2017-06-17T12:12:08.821Z,25
2017-06-17T12:13:21.696Z,25
2017-06-17T12:14:34.575Z,20
2017-06-17T12:15:47.451Z,25
2017-06-17T12:17:00.323Z,20
2017-06-17T12:18:12.702Z,20
2017-06-17T12:19:25.083Z,20
2017-06-17T12:20:37.955Z,20
2017-06-17T12:21:50.746Z,20
2017-06-17T12:23:03.050Z,20
2017-06-17T12:24:15.156Z,20
2017-06-17T12:25:27.513Z,20
2017-06-17T12:26:40.409Z,25
2017-06-17T12:27:52.737Z,30
2017-06-17T12:29:05.512Z,35
2017-06-17T12:30:17.805Z,35
2017-06-17T12:31:30.102Z,35
2017-06-17T12:32:42.881Z,35
2017-06-17T12:33:55.654Z,35
2017-06-17T12:35:07.954Z,35
2017-06-17T12:36:20.931Z,35
2017-06-17T12:37:33.228Z,30
2017-06-17T12:38:46.009Z,30
2017-06-17T12:39:58.793Z,30
2017-06-17T12:41:11.568Z,35
2017-06-17T12:42:24.067Z,35
2017-06-17T12:43:36.843Z,35
2017-06-17T12:44:49.628Z,35
2017-06-17T12:46:01.926Z,35
2017-06-17T12:47:14.901Z,35
2017-06-17T12:48:27.196Z,35
2017-06-17T12:49:39.975Z,30
2017-06-17T12:50:52.755Z,30
2017-06-17T12:52:05.050Z,35
2017-06-17T12:53:17.346Z,35
2017-06-17T12:54:29.638Z,35
2017-06-17T12:55:42.420Z,40
2017-06-17T12:56:54.715Z,45
2017-06-17T12:58:06.531Z,40
2017-06-17T12:59:18.827Z,40
2017-06-17T13:00:31.605Z,40
2017-06-17T13:01:44.382Z,40
2017-06-17T13:02:56.198Z,40
2017-06-17T13:04:08.974Z,40
2017-06-17T13:05:21.754Z,40
2017-06-17T13:06:34.531Z,40
2017-06-17T13:07:46.830Z,35
2017-06-17T13:08:59.616Z,35
2017-06-17T13:10:11.913Z,35
2017-06-17T13:11:24.692Z,35
2017-06-17T13:12:37.470Z,35
2017-06-17T13:13:50.281Z,35
2017-06-17T13:15:02.577Z,35
2017-06-17T13:16:13.912Z,35
2017-06-17T13:17:25.727Z,35
2017-06-17T13:18:38.509Z,35
2017-06-17T13:19:51.283Z,35
2017-06-17T13:21:04.269Z,30
2017-06-17T13:22:16.569Z,30
2017-06-17T13:23:29.347Z,30
2017-06-17T13:24:41.645Z,30
2017-06-17T13:25:54.620Z,30
2017-06-17T13:27:06.917Z,30
2017-06-17T13:28:18.735Z,30
2017-06-17T13:29:31.514Z,30
2017-06-17T13:30:44.289Z,30
2017-06-17T13:31:56.787Z,30
2017-06-17T13:33:09.563Z,30
2017-06-17T13:34:21.862Z,30
2017-06-17T13:35:34.639Z,30
2017-06-17T13:36:46.934Z,30
2017-06-17T13:37:59.710Z,30
2017-06-17T13:39:12.488Z,30
2017-06-17T13:40:24.786Z,30
2017-06-17T13:41:37.564Z,30
2017-06-17T13:42:50.063Z,30
2017-06-17T13:44:02.357Z,30
2017-06-17T13:45:14.659Z,30
2017-06-17T13:46:27.439Z,30
2017-06-17T13:47:40.219Z,30
2017-06-17T13:48:52.994Z,30
2017-06-17T13:50:04.810Z,30
2017-06-17T13:51:17.110Z,30
2017-06-17T13:52:29.889Z,30
2017-06-17T13:53:42.387Z,30
2017-06-17T13:54:54.683Z,30
2017-06-17T13:56:06.499Z,30
2017-06-17T13:57:19.277Z,30
2017-06-17T13:58:31.781Z,30
2017-06-17T13:59:44.559Z,30
2017-06-17T14:00:56.858Z,30
2017-06-17T14:02:09.156Z,30
2017-06-17T14:03:21.456Z,35
2017-06-17T14:04:33.752Z,30
2017-06-17T14:05:46.530Z,30
2017-06-17T14:06:59.307Z,35
2017-06-17T14:08:11.602Z,35
2017-06-17T14:09:24.383Z,35
2017-06-17T14:10:37.200Z,35
2017-06-17T14:11:49.982Z,35
2017-06-17T14:13:02.762Z,35
2017-06-17T14:14:15.543Z,35
2017-06-17T14:15:27.842Z,35
2017-06-17T14:16:40.142Z,35
2017-06-17T14:17:52.921Z,35
2017-06-17T14:19:05.703Z,35
2017-06-17T14:20:18.205Z,35
2017-06-17T14:21:30.985Z,35
2017-06-17T14:22:43.292Z,35
2017-06-17T14:23:55.590Z,40
2017-06-17T14:25:07.406Z,40
2017-06-17T14:26:19.426Z,40
2017-06-17T14:27:32.208Z,40
2017-06-17T14:28:44.504Z,40
2017-06-17T14:29:57.284Z,40
2017-06-17T14:31:09.784Z,40
2017-06-17T14:32:22.562Z,40
2017-06-17T14:33:34.379Z,40
2017-06-17T14:34:46.676Z,40
2017-06-17T14:35:58.975Z,40
2017-06-17T14:37:11.277Z,40
2017-06-17T14:38:23.091Z,40
2017-06-17T14:39:35.386Z,35
2017-06-17T14:40:47.203Z,35
2017-06-17T14:41:59.509Z,35
2017-06-17T14:43:12.297Z,35
2017-06-17T14:44:25.082Z,35
2017-06-17T14:45:37.877Z,40
2017-06-17T14:46:50.178Z,40
2017-06-17T14:48:02.481Z,40
2017-06-17T14:49:15.271Z,35
2017-06-17T14:50:28.056Z,35
2017-06-17T14:51:40.358Z,35
2017-06-17T14:52:52.657Z,35
2017-06-17T14:54:05.641Z,35
2017-06-17T14:55:18.428Z,35
2017-06-17T14:56:30.753Z,35
2017-06-17T14:57:43.060Z,35
2017-06-17T14:58:55.082Z,35
2017-06-17T15:00:06.427Z,35
2017-06-17T15:01:18.249Z,35
2017-06-17T15:02:31.037Z,35
2017-06-17T15:03:43.345Z,35
2017-06-17T15:04:55.854Z,30
2017-06-17T15:06:08.633Z,30
2017-06-17T15:07:20.932Z,35
2017-06-17T15:08:33.235Z,30
2017-06-17T15:09:46.231Z,30
2017-06-17T15:10:58.066Z,30
2017-06-17T15:12:09.426Z,30
2017-06-17T15:13:22.251Z,30
2017-06-17T15:14:34.577Z,30
2017-06-17T15:15:47.082Z,30
2017-06-17T15:16:59.860Z,30
2017-06-17T15:18:12.638Z,30
2017-06-17T15:19:24.942Z,30
2017-06-17T15:20:37.930Z,30
2017-06-17T15:21:50.711Z,30
2017-06-17T15:23:02.535Z,25
2017-06-17T15:24:14.354Z,25
2017-06-17T15:25:27.141Z,25
2017-06-17T15:26:39.646Z,25
2017-06-17T15:27:52.427Z,25
2017-06-17T15:29:04.728Z,25
2017-06-17T15:30:16.543Z,25
2017-06-17T15:31:29.045Z,25
2017-06-17T15:32:40.864Z,25
2017-06-17T15:33:53.766Z,25
2017-06-17T15:35:05.213Z,25
2017-06-17T15:36:17.643Z,25
2017-06-17T15:37:30.761Z,25
2017-06-17T15:38:43.679Z,25
2017-06-17T15:39:56.604Z,20
2017-06-17T15:41:09.526Z,20
2017-06-17T15:42:22.448Z,20
2017-06-17T15:43:34.873Z,20
2017-06-17T15:44:47.300Z,20
2017-06-17T15:46:00.228Z,20
2017-06-17T15:47:13.150Z,20
2017-06-17T15:48:26.270Z,20
2017-06-17T15:49:39.214Z,20
2017-06-17T15:50:52.153Z,20
2017-06-17T15:52:05.077Z,20
2017-06-17T15:53:18.199Z,20
2017-06-17T15:54:31.120Z,20
2017-06-17T15:55:44.039Z,20
2017-06-17T15:56:56.958Z,20
2017-06-17T15:58:09.384Z,20
2017-06-17T15:59:22.303Z,20
2017-06-17T16:00:35.224Z,15
2017-06-17T16:01:47.650Z,15
2017-06-17T16:03:00.570Z,15
2017-06-17T16:04:13.201Z,15
2017-06-17T16:05:26.125Z,15
2017-06-17T16:06:38.055Z,15
2017-06-17T16:07:50.837Z,15
2017-06-17T16:09:03.619Z,15
2017-06-17T16:10:16.597Z,15
2017-06-17T16:11:28.516Z,15
2017-06-17T16:12:41.412Z,15
2017-06-17T16:13:53.820Z,15
2017-06-17T16:15:06.228Z,15
2017-06-17T16:16:19.128Z,15
2017-06-17T16:17:32.028Z,15
2017-06-17T16:18:43.951Z,15
2017-06-17T16:19:56.850Z,15
2017-06-17T16:21:08.971Z,15
2017-06-17T16:22:21.870Z,15
2017-06-17T16:23:34.770Z,15
2017-06-17T16:24:47.675Z,15
2017-06-17T16:27:26.545Z,15
2017-06-17T16:28:39.442Z,15
2017-06-17T16:29:52.338Z,15
2017-06-17T16:31:05.238Z,15
2017-06-17T16:32:17.158Z,15
2017-06-17T16:33:29.571Z,15
2017-06-17T16:34:41.499Z,15
2017-06-17T16:35:53.913Z,15
2017-06-17T16:37:20.869Z,10
2017-06-17T16:38:33.277Z,10
2017-06-17T16:39:46.177Z,15
2017-06-17T16:40:59.079Z,15
2017-06-17T16:42:11.986Z,15
2017-06-17T16:43:24.398Z,15
2017-06-17T16:44:36.807Z,15
2017-06-17T16:45:49.708Z,15
2017-06-17T16:47:02.319Z,15
2017-06-17T16:48:14.732Z,15
2017-06-17T16:49:27.146Z,15
2017-06-17T16:50:39.563Z,20
2017-06-17T16:51:52.467Z,20
2017-06-17T16:53:05.573Z,15
2017-06-17T16:54:18.468Z,15
2017-06-17T16:55:29.899Z,15
2017-06-17T16:56:41.838Z,15
2017-06-17T16:57:54.766Z,15
2017-06-17T16:59:07.685Z,15
2017-06-17T17:00:20.606Z,15
2017-06-17T17:01:33.524Z,15
2017-06-17T17:02:46.441Z,15
2017-06-17T17:03:58.576Z,15
2017-06-17T17:05:10.511Z,10
2017-06-17T17:06:23.427Z,15
2017-06-17T17:07:36.343Z,15
2017-06-17T17:08:48.772Z,15
2017-06-17T17:10:01.693Z,10
2017-06-17T17:11:14.123Z,10
2017-06-17T17:12:26.550Z,15
2017-06-17T17:13:38.976Z,15
2017-06-17T17:14:51.605Z,15
2017-06-17T17:16:04.033Z,15
2017-06-17T17:17:16.460Z,15
2017-06-17T17:18:29.382Z,15
2017-06-17T17:19:42.007Z,15
2017-06-17T17:20:54.961Z,15
2017-06-17T17:22:07.397Z,10
2017-06-17T17:23:18.841Z,10
2017-06-17T17:24:30.784Z,10
2017-06-17T17:25:43.902Z,10
2017-06-17T17:26:56.330Z,10
2017-06-17T17:28:09.248Z,10
2017-06-17T17:29:21.675Z,10
2017-06-17T17:30:34.107Z,10
2017-06-17T17:31:46.050Z,10
2017-06-17T17:32:57.988Z,10
2017-06-17T17:34:10.439Z,10
2017-06-17T17:35:23.365Z,10
2017-06-17T17:36:50.331Z,10
2017-06-17T17:38:03.252Z,10
2017-06-17T17:39:15.681Z,10
2017-06-17T17:40:28.111Z,10
2017-06-17T17:41:41.213Z,10
2017-06-17T17:42:53.624Z,10
2017-06-17T17:44:06.038Z,10